createdAt,value
2022-08-05T00:02:25.000Z,28.47
2022-08-05T00:07:25.000Z,27.43
2022-08-05T00:12:25.000Z,26.49
2022-08-05T00:17:25.000Z,26.41
2022-08-05T00:22:24.000Z,25.99
2022-08-05T00:27:24.000Z,26.62
2022-08-05T00:32:24.000Z,27.71
2022-08-05T00:37:25.000Z,26.91
2022-08-05T00:42:24.000Z,26.91
2022-08-05T00:47:25.000Z,26.34
2022-08-05T00:52:24.000Z,25.91
2022-08-05T01:02:25.000Z,26.63
2022-08-05T01:07:25.000Z,27.11
2022-08-05T01:17:24.000Z,27.32
2022-08-05T01:22:25.000Z,27.32
2022-08-05T01:27:25.000Z,27.15
2022-08-05T01:32:24.000Z,27.48
2022-08-05T01:37:24.000Z,28.65
2022-08-05T01:42:24.000Z,29.58
2022-08-05T01:47:25.000Z,32.87
2022-08-05T01:52:24.000Z,33.42
2022-08-05T01:57:25.000Z,31.46
2022-08-05T02:07:25.000Z,29.08
2022-08-05T02:12:24.000Z,31.91
2022-08-05T02:17:24.000Z,32.38
2022-08-05T02:27:24.000Z,30.17
2022-08-05T02:32:24.000Z,28.2
2022-08-05T02:37:25.000Z,28.81
2022-08-05T02:42:24.000Z,30.4
2022-08-05T02:47:24.000Z,29.84
2022-08-05T02:52:25.000Z,29.84
2022-08-05T02:57:25.000Z,33.55
2022-08-05T03:02:25.000Z,35.21
2022-08-05T03:07:24.000Z,35.74
2022-08-05T03:12:24.000Z,35.85
2022-08-05T03:17:25.000Z,37.78
2022-08-05T03:22:25.000Z,36.94
2022-08-05T03:27:24.000Z,36.08
2022-08-05T03:32:24.000Z,32.99
2022-08-05T03:37:24.000Z,32.99
2022-08-05T03:42:24.000Z,31.93
2022-08-05T03:47:24.000Z,32.43
2022-08-05T03:52:25.000Z,29.56
2022-08-05T04:02:24.000Z,27.01
2022-08-05T04:07:24.000Z,24.08
2022-08-05T04:12:24.000Z,24.08
2022-08-05T04:17:24.000Z,25.05
2022-08-05T04:22:25.000Z,23.43
2022-08-05T04:27:25.000Z,21.73
2022-08-05T04:32:24.000Z,20.57
2022-08-05T04:37:24.000Z,18.57
2022-08-05T04:42:25.000Z,18.43
2022-08-05T04:47:25.000Z,18.86
2022-08-05T04:52:24.000Z,18.23
2022-08-05T04:57:24.000Z,18.23
2022-08-05T05:02:24.000Z,17.95
2022-08-05T05:07:24.000Z,18.18
2022-08-05T05:12:25.000Z,17.55
2022-08-05T05:17:25.000Z,16.03
2022-08-05T05:22:25.000Z,16.12
2022-08-05T05:27:24.000Z,15.87
2022-08-05T05:32:24.000Z,14.58
2022-08-05T05:37:25.000Z,14.58
2022-08-05T05:42:25.000Z,14.67
2022-08-05T05:47:24.000Z,13.93
2022-08-05T05:52:24.000Z,15.01
2022-08-05T05:57:25.000Z,14.58
2022-08-05T06:02:24.000Z,14.29
2022-08-05T06:07:24.000Z,15.12
2022-08-05T06:12:25.000Z,15.12
2022-08-05T06:17:24.000Z,14.51
2022-08-05T06:22:24.000Z,13.6
2022-08-05T06:32:25.000Z,12.15
2022-08-05T06:37:25.000Z,12.38
2022-08-05T06:42:24.000Z,11.75
2022-08-05T06:47:24.000Z,11.75
2022-08-05T06:57:25.000Z,11.09
2022-08-05T07:02:25.000Z,10.69
2022-08-05T07:07:24.000Z,10.75
2022-08-05T07:17:24.000Z,9.7
2022-08-05T07:22:24.000Z,9.35
2022-08-05T07:27:24.000Z,9.35
2022-08-05T07:32:25.000Z,10.06
2022-08-05T07:37:25.000Z,9.77
2022-08-05T07:42:25.000Z,10.1
2022-08-05T07:47:25.000Z,10.34
2022-08-05T07:52:25.000Z,9.95
2022-08-05T07:57:24.000Z,10.21
2022-08-05T08:07:24.000Z,9.82
2022-08-05T08:12:24.000Z,9.86
2022-08-05T08:17:24.000Z,9.97
2022-08-05T08:22:24.000Z,9.94
2022-08-05T08:27:24.000Z,11.09
2022-08-05T08:32:24.000Z,11.7
2022-08-05T08:37:24.000Z,11.7
2022-08-05T08:42:25.000Z,12.53
2022-08-05T08:47:25.000Z,12.02
2022-08-05T08:57:25.000Z,12.35
2022-08-05T09:02:24.000Z,11.98
2022-08-05T09:12:24.000Z,11.77
2022-08-05T09:17:25.000Z,12.5
2022-08-05T09:22:24.000Z,12.59
2022-08-05T09:27:24.000Z,11.95
2022-08-05T09:32:24.000Z,12.1
2022-08-05T09:37:24.000Z,12.42
2022-08-05T09:42:24.000Z,11.26
2022-08-05T09:47:24.000Z,11.27
2022-08-05T09:52:24.000Z,11.42
2022-08-05T09:57:25.000Z,10.81
2022-08-05T10:02:24.000Z,10.35
2022-08-05T10:07:24.000Z,10.66
2022-08-05T10:12:25.000Z,10.66
2022-08-05T10:17:25.000Z,10.83
2022-08-05T10:22:25.000Z,10.87
2022-08-05T10:27:24.000Z,10.37
2022-08-05T10:32:25.000Z,10.58
2022-08-05T10:37:24.000Z,10.7
2022-08-05T10:42:24.000Z,10.59
2022-08-05T10:47:24.000Z,11.01
2022-08-05T10:52:24.000Z,10.44
2022-08-05T10:57:24.000Z,10.43
2022-08-05T11:02:24.000Z,10.17
2022-08-05T11:07:24.000Z,9.96
2022-08-05T11:12:25.000Z,10.1
2022-08-05T11:17:24.000Z,10.39
2022-08-05T11:22:24.000Z,10.87
2022-08-05T11:27:25.000Z,10.5
2022-08-05T11:32:25.000Z,10.5
2022-08-05T11:37:24.000Z,10.16
2022-08-05T11:47:24.000Z,10.26
2022-08-05T11:52:25.000Z,10.07
2022-08-05T11:57:25.000Z,11.34
2022-08-05T12:02:24.000Z,11.34
2022-08-05T12:07:24.000Z,10.51
2022-08-05T12:12:25.000Z,10.15
2022-08-05T12:22:25.000Z,10.51
2022-08-05T12:27:25.000Z,10.4
2022-08-05T12:32:24.000Z,9.97
2022-08-05T12:37:24.000Z,9.95
2022-08-05T12:42:25.000Z,9.95
2022-08-05T12:47:25.000Z,9.8
2022-08-05T12:52:24.000Z,10.14
2022-08-05T12:57:25.000Z,9.93
2022-08-05T13:07:24.000Z,9.99
2022-08-05T13:12:25.000Z,10.09
2022-08-05T13:17:25.000Z,10.32
2022-08-05T13:22:24.000Z,10.06
2022-08-05T13:27:24.000Z,10.09
2022-08-05T13:32:24.000Z,10.09
2022-08-05T13:37:25.000Z,9.7
2022-08-05T13:47:24.000Z,9.36
2022-08-05T13:57:24.000Z,9.58
2022-08-05T14:02:25.000Z,9.58
2022-08-05T14:07:25.000Z,9.54
2022-08-05T14:12:24.000Z,9.75
2022-08-05T14:17:24.000Z,9.8
2022-08-05T14:22:24.000Z,9.85
2022-08-05T14:27:24.000Z,9.89
2022-08-05T14:32:24.000Z,9.93
2022-08-05T14:37:24.000Z,10.59
2022-08-05T14:42:24.000Z,10.59
2022-08-05T14:47:24.000Z,11.04
2022-08-05T14:52:25.000Z,10.2
2022-08-05T14:57:25.000Z,10.3
2022-08-05T15:02:24.000Z,12.46
2022-08-05T15:07:24.000Z,14.39
2022-08-05T15:17:24.000Z,12.74
2022-08-05T15:22:25.000Z,12.21
2022-08-05T15:27:24.000Z,12.21
2022-08-05T15:32:25.000Z,10.93
2022-08-05T15:37:25.000Z,11.07
2022-08-05T15:47:24.000Z,11.85
2022-08-05T15:52:24.000Z,11.73
2022-08-05T15:57:24.000Z,10.85
2022-08-05T16:02:24.000Z,12.12
2022-08-05T16:07:24.000Z,12.06
2022-08-05T16:12:25.000Z,12.06
2022-08-05T16:17:25.000Z,12.76
2022-08-05T16:22:24.000Z,14.03
2022-08-05T16:27:24.000Z,14.21
2022-08-05T16:32:25.000Z,13.94
2022-08-05T16:37:25.000Z,13.9
2022-08-05T16:42:24.000Z,13.1
2022-08-05T16:47:24.000Z,13.74
2022-08-05T16:52:25.000Z,14.78
2022-08-05T16:57:24.000Z,14.78
2022-08-05T17:02:25.000Z,15.37
2022-08-05T17:07:24.000Z,15.4
2022-08-05T17:12:25.000Z,17.69
2022-08-05T17:17:24.000Z,30.05
2022-08-05T17:22:24.000Z,28.46
2022-08-05T17:27:25.000Z,29.35
2022-08-05T17:32:24.000Z,30.65
2022-08-05T17:37:25.000Z,34.25
2022-08-05T17:42:25.000Z,34.25
2022-08-05T17:47:25.000Z,38.59
2022-08-05T17:52:24.000Z,37.99
2022-08-05T17:57:25.000Z,34.82
2022-08-05T18:02:24.000Z,34.13
2022-08-05T18:07:24.000Z,32.13
2022-08-05T18:12:25.000Z,30.07
2022-08-05T18:17:24.000Z,29.18
2022-08-05T18:22:24.000Z,29.08
2022-08-05T18:27:24.000Z,30.14
2022-08-05T18:32:24.000Z,30.14
2022-08-05T18:37:25.000Z,32.25
2022-08-05T18:42:24.000Z,31.24
2022-08-05T18:47:24.000Z,32.77
2022-08-05T18:52:24.000Z,32.52
2022-08-05T18:57:24.000Z,34.14
2022-08-05T19:02:24.000Z,33.71
2022-08-05T19:07:24.000Z,37.44
2022-08-05T19:12:25.000Z,37.44
2022-08-05T19:17:24.000Z,37.66
2022-08-05T19:22:25.000Z,37.8
2022-08-05T19:27:25.000Z,39.07
2022-08-05T19:32:24.000Z,40.88
2022-08-05T19:37:24.000Z,39.73
2022-08-05T19:42:24.000Z,39.26
2022-08-05T19:47:25.000Z,39.84
2022-08-05T19:52:24.000Z,34.77
2022-08-05T19:57:24.000Z,31.53
2022-08-05T20:02:25.000Z,31.53
2022-08-05T20:07:25.000Z,32.62
2022-08-05T20:12:24.000Z,33.46
2022-08-05T20:17:24.000Z,33.48
2022-08-05T20:22:24.000Z,38.46
2022-08-05T20:27:25.000Z,35.39
2022-08-05T20:32:25.000Z,35.52
2022-08-05T20:37:25.000Z,36.27
2022-08-05T20:42:25.000Z,33.99
2022-08-05T20:47:24.000Z,33.11
2022-08-05T20:52:24.000Z,33.11
2022-08-05T20:57:24.000Z,35.72
2022-08-05T21:02:24.000Z,38.44
2022-08-05T21:07:24.000Z,34.5
2022-08-05T21:12:24.000Z,33.99
2022-08-05T21:17:24.000Z,31.36
2022-08-05T21:22:24.000Z,31.43
2022-08-05T21:27:24.000Z,32.51
2022-08-05T21:32:25.000Z,32.51
2022-08-05T21:37:25.000Z,34.11
2022-08-05T21:42:24.000Z,31.92
2022-08-05T21:47:24.000Z,32.11
2022-08-05T21:52:24.000Z,34.04
2022-08-05T21:57:25.000Z,35.65
2022-08-05T22:02:24.000Z,34.95
2022-08-05T22:07:24.000Z,34.95
2022-08-05T22:12:25.000Z,34.55
2022-08-05T22:17:24.000Z,33.83
2022-08-05T22:22:25.000Z,35.46
2022-08-05T22:27:24.000Z,33.18
2022-08-05T22:32:24.000Z,31.83
2022-08-05T22:37:25.000Z,32.37
2022-08-05T22:47:24.000Z,34.86
2022-08-05T22:52:24.000Z,32.7
2022-08-05T22:57:25.000Z,31.92
2022-08-05T23:02:24.000Z,30.42
2022-08-05T23:07:24.000Z,30.88
2022-08-05T23:12:24.000Z,28.81
2022-08-05T23:17:24.000Z,29.68
2022-08-05T23:22:25.000Z,32.36
2022-08-05T23:27:24.000Z,30.54
2022-08-05T23:32:25.000Z,28.86
2022-08-05T23:37:25.000Z,28.86
2022-08-05T23:42:24.000Z,29.14
2022-08-05T23:47:24.000Z,29.37
2022-08-05T23:52:25.000Z,28.72
2022-08-05T23:57:24.000Z,28.84
